createdAt,value
2023-04-02T00:00:10.865Z,101169.09
2023-04-02T00:02:58.600Z,101174.34
2023-04-02T00:05:34.760Z,101186.00
2023-04-02T00:08:10.294Z,101183.38
2023-04-02T00:10:39.912Z,101190.50
2023-04-02T00:13:18.671Z,101190.50
2023-04-02T00:15:49.051Z,101191.63
2023-04-02T00:18:19.160Z,101201.03
2023-04-02T00:20:50.644Z,101202.91
2023-04-02T00:23:17.131Z,101201.44
2023-04-02T00:25:45.785Z,101206.69
2023-04-02T00:28:18.743Z,101213.84
2023-04-02T00:30:49.747Z,101217.22
2023-04-02T00:33:18.993Z,101222.84
2023-04-02T00:35:46.113Z,101213.06
2023-04-02T00:38:22.381Z,101228.84
2023-04-02T00:40:49.859Z,101231.47
2023-04-02T00:43:16.833Z,101238.63
2023-04-02T00:45:50.828Z,101243.13
2023-04-02T00:48:54.747Z,101249.16
2023-04-02T00:51:28.619Z,101254.41
2023-04-02T00:53:58.066Z,101257.06
2023-04-02T00:56:29.211Z,101258.94
2023-04-02T00:58:57.586Z,101264.19
2023-04-02T01:01:36.540Z,101276.59
2023-04-02T01:04:05.686Z,101279.22
2023-04-02T01:06:37.272Z,101285.25
2023-04-02T01:09:39.333Z,101287.13
2023-04-02T01:12:20.818Z,101294.25
2023-04-02T01:15:10.728Z,101294.25
2023-04-02T01:18:02.304Z,101300.66
2023-04-02T01:21:08.719Z,101296.13
2023-04-02T01:24:05.570Z,101309.31
2023-04-02T01:27:02.118Z,101311.94
2023-04-02T01:29:35.910Z,101313.06
2023-04-02T01:32:06.685Z,101319.81
2023-04-02T01:34:34.670Z,101322.84
2023-04-02T01:37:22.333Z,101326.22
2023-04-02T01:39:54.572Z,101328.13
2023-04-02T01:42:27.077Z,101336.38
2023-04-02T01:45:00.652Z,101332.63
2023-04-02T01:47:29.055Z,101335.63
2023-04-02T01:50:19.596Z,101339.75
2023-04-02T01:52:53.834Z,101352.91
2023-04-02T01:55:39.598Z,101352.91
2023-04-02T01:58:07.151Z,101362.69
2023-04-02T02:00:36.245Z,101369.09
2023-04-02T02:03:05.133Z,101370.59
2023-04-02T02:05:32.326Z,101378.47
2023-04-02T02:08:01.310Z,101382.25
2023-04-02T02:10:33.897Z,101388.25
2023-04-02T02:13:01.052Z,101384.13
2023-04-02T02:15:28.661Z,101395.75
2023-04-02T02:18:00.981Z,101396.50
2023-04-02T02:20:29.084Z,101401.03
2023-04-02T02:22:56.646Z,101405.53
2023-04-02T02:25:27.224Z,101413.06
2023-04-02T02:28:18.194Z,101412.31
2023-04-02T02:30:53.519Z,101418.69
2023-04-02T02:33:32.748Z,101429.97
2023-04-02T02:36:06.753Z,101435.25
2023-04-02T02:38:55.635Z,101425.09
2023-04-02T02:41:46.208Z,101433.00
2023-04-02T02:44:20.772Z,101448.78
2023-04-02T02:46:58.995Z,101442.00
2023-04-02T02:49:31.699Z,101444.63
2023-04-02T02:52:06.536Z,101451.75
2023-04-02T02:54:39.477Z,101455.50
2023-04-02T02:57:11.289Z,101462.63
2023-04-02T02:59:38.475Z,101467.91
2023-04-02T03:02:07.125Z,101474.69
2023-04-02T03:04:37.291Z,101479.94
2023-04-02T03:07:06.673Z,101478.44
2023-04-02T03:09:47.137Z,101482.94
2023-04-02T03:12:33.036Z,101491.59
2023-04-02T03:15:16.806Z,101494.22
2023-04-02T03:17:51.533Z,101499.47
2023-04-02T03:20:22.176Z,101504.00
2023-04-02T03:23:05.919Z,101499.88
2023-04-02T03:25:47.556Z,101518.28
2023-04-02T03:28:19.213Z,101522.78
2023-04-02T03:30:54.576Z,101540.81
2023-04-02T03:33:27.718Z,101538.59
2023-04-02T03:36:00.082Z,101547.59
2023-04-02T03:38:37.282Z,101551.75
2023-04-02T03:41:13.500Z,101556.63
2023-04-02T03:43:46.000Z,101564.91
2023-04-02T03:46:57.685Z,101565.66
2023-04-02T03:49:27.837Z,101578.06
2023-04-02T03:52:04.462Z,101593.84
2023-04-02T03:54:31.303Z,101597.59
2023-04-02T03:56:58.596Z,101595.72
2023-04-02T03:59:44.013Z,101596.47
2023-04-02T04:02:43.038Z,101601.75
2023-04-02T04:05:22.909Z,101610.75
2023-04-02T04:07:53.487Z,101611.50
2023-04-02T04:10:26.185Z,101613.03
2023-04-02T04:12:55.924Z,101632.19
2023-04-02T04:15:28.998Z,101647.25
2023-04-02T04:18:24.381Z,101634.81
2023-04-02T04:21:01.187Z,101646.47
2023-04-02T04:23:33.803Z,101653.25
2023-04-02T04:26:19.859Z,101651.00
2023-04-02T04:29:17.346Z,101654.38
2023-04-02T04:31:49.677Z,101655.88
2023-04-02T04:34:32.280Z,101656.25
2023-04-02T04:37:07.674Z,101662.28
2023-04-02T04:39:44.698Z,101683.31
2023-04-02T04:42:21.041Z,101682.94
2023-04-02T04:45:13.413Z,101693.84
2023-04-02T04:47:47.823Z,101699.13
2023-04-02T04:50:32.280Z,101705.88
2023-04-02T04:53:13.832Z,101714.91
2023-04-02T04:55:44.118Z,101720.16
2023-04-02T04:58:23.158Z,101717.53
2023-04-02T05:00:55.469Z,101726.19
2023-04-02T05:03:42.146Z,101733.31
2023-04-02T05:06:15.813Z,101738.59
2023-04-02T05:08:49.094Z,101750.63
2023-04-02T05:11:42.704Z,101755.16
2023-04-02T05:14:23.922Z,101761.91
2023-04-02T05:17:02.946Z,101771.66
2023-04-02T05:19:37.876Z,101769.03
2023-04-02T05:22:17.249Z,101780.31
2023-04-02T05:25:10.318Z,101790.47
2023-04-02T05:27:41.829Z,101787.47
2023-04-02T05:30:37.217Z,101779.91
2023-04-02T05:33:15.460Z,101794.19
2023-04-02T05:35:45.772Z,101799.81
2023-04-02T05:38:21.127Z,101797.50
2023-04-02T05:40:51.598Z,101812.91
2023-04-02T05:43:22.824Z,101817.88
2023-04-02T05:45:54.953Z,101823.50
2023-04-02T05:48:28.684Z,101823.50
2023-04-02T05:50:58.794Z,101830.31
2023-04-02T05:53:34.330Z,101834.03
2023-04-02T05:56:23.902Z,101845.34
2023-04-02T05:59:04.587Z,101846.09
2023-04-02T06:01:51.297Z,101856.63
2023-04-02T06:04:45.691Z,101864.50
2023-04-02T06:07:55.528Z,101872.41
2023-04-02T06:10:27.031Z,101877.66
2023-04-02T06:13:15.345Z,101890.84
2023-04-02T06:15:41.947Z,101899.50
2023-04-02T06:18:16.868Z,101908.13
2023-04-02T06:20:43.641Z,101907.38
2023-04-02T06:23:57.787Z,101927.69
2023-04-02T06:26:29.580Z,101931.06
2023-04-02T06:29:12.220Z,101930.31
2023-04-02T06:32:02.125Z,101939.31
2023-04-02T06:34:30.262Z,101940.84
2023-04-02T06:37:04.324Z,101951.38
2023-04-02T06:39:31.060Z,101952.47
2023-04-02T06:42:04.592Z,101961.88
2023-04-02T06:44:38.246Z,101966.41
2023-04-02T06:47:12.080Z,101967.91
2023-04-02T06:50:07.795Z,101965.63
2023-04-02T06:52:44.606Z,101971.66
2023-04-02T06:55:20.139Z,101979.56
2023-04-02T06:57:48.564Z,101989.31
2023-04-02T07:00:38.150Z,101991.94
2023-04-02T07:03:15.884Z,102000.59
2023-04-02T07:05:43.120Z,102010.38
2023-04-02T07:08:09.798Z,102009.25
2023-04-02T07:10:36.298Z,102015.63
2023-04-02T07:13:02.882Z,102030.31
2023-04-02T07:15:29.469Z,102031.81
2023-04-02T07:17:59.039Z,102035.94
2023-04-02T07:20:32.649Z,102040.03
2023-04-02T07:22:59.310Z,102042.25
2023-04-02T07:25:27.066Z,102048.97
2023-04-02T07:27:53.865Z,102056.13
2023-04-02T07:30:20.507Z,102064.78
2023-04-02T07:32:47.499Z,102063.59
2023-04-02T07:35:14.537Z,102066.94
2023-04-02T07:37:41.188Z,102079.69
2023-04-02T07:40:16.678Z,102077.75
2023-04-02T07:42:43.138Z,102080.34
2023-04-02T07:45:10.082Z,102084.13
2023-04-02T07:47:36.612Z,102081.47
2023-04-02T07:50:03.811Z,102081.09
2023-04-02T07:52:31.332Z,102100.66
2023-04-02T07:54:57.882Z,102094.66
2023-04-02T07:57:24.500Z,102097.56
2023-04-02T07:59:51.549Z,102109.28
2023-04-02T08:02:21.061Z,102106.56
2023-04-02T08:04:48.326Z,102105.84
2023-04-02T08:07:22.145Z,102108.78
2023-04-02T08:09:48.581Z,102104.63
2023-04-02T08:12:15.611Z,102113.22
2023-04-02T08:14:42.052Z,102121.47
2023-04-02T08:17:08.486Z,102119.94
2023-04-02T08:19:41.550Z,102126.38
2023-04-02T08:22:18.346Z,102133.88
2023-04-02T08:24:44.809Z,102135.72
2023-04-02T08:27:15.062Z,102148.50
2023-04-02T08:29:41.519Z,102152.28
2023-04-02T08:32:12.569Z,102149.22
2023-04-02T08:34:39.327Z,102157.13
2023-04-02T08:37:05.937Z,102159.75
2023-04-02T08:39:34.224Z,102166.97
2023-04-02T08:42:18.915Z,102176.75
2023-04-02T08:45:21.164Z,102183.09
2023-04-02T08:47:51.809Z,102183.63
2023-04-02T08:50:31.000Z,102196.97
2023-04-02T08:52:59.696Z,102194.28
2023-04-02T08:55:47.792Z,102199.03
2023-04-02T08:58:29.450Z,102208.72
2023-04-02T09:00:57.751Z,102203.88
2023-04-02T09:03:42.986Z,102220.16
2023-04-02T09:06:14.756Z,102221.81
2023-04-02T09:08:44.955Z,102225.66
2023-04-02T09:11:26.665Z,102238.81
2023-04-02T09:13:58.528Z,102241.44
2023-04-02T09:16:40.810Z,102244.06
2023-04-02T09:19:36.239Z,102243.78
2023-04-02T09:22:20.011Z,102254.66
2023-04-02T09:24:51.887Z,102266.34
2023-04-02T09:27:20.450Z,102263.03
2023-04-02T09:29:55.144Z,102282.13
2023-04-02T09:32:32.966Z,102288.56
2023-04-02T09:35:22.338Z,102286.97
2023-04-02T09:38:10.053Z,102292.56
2023-04-02T09:40:48.328Z,102297.91
2023-04-02T09:43:18.080Z,102297.16
2023-04-02T09:45:55.058Z,102296.44
2023-04-02T09:48:26.446Z,102297.22
2023-04-02T09:51:17.691Z,102294.91
2023-04-02T09:54:04.441Z,102295.69
2023-04-02T09:56:33.251Z,102299.53
2023-04-02T09:59:06.906Z,102313.84
2023-04-02T10:01:35.568Z,102312.41
2023-04-02T10:04:03.717Z,102321.81
2023-04-02T10:06:31.873Z,102323.34
2023-04-02T10:08:59.054Z,102323.00
2023-04-02T10:11:43.673Z,102325.38
2023-04-02T10:14:27.688Z,102330.22
2023-04-02T10:17:01.280Z,102330.53
2023-04-02T10:19:34.694Z,102336.56
2023-04-02T10:22:05.283Z,102330.22
2023-04-02T10:24:31.862Z,102334.38
2023-04-02T10:27:02.424Z,102336.66
2023-04-02T10:29:47.295Z,102337.44
2023-04-02T10:32:18.939Z,102343.69
2023-04-02T10:35:03.479Z,102336.56
2023-04-02T10:37:47.082Z,102335.81
2023-04-02T10:40:34.015Z,102337.69
2023-04-02T10:43:28.397Z,102341.84
2023-04-02T10:46:02.469Z,102346.66
2023-04-02T10:48:42.099Z,102336.16
2023-04-02T10:51:36.993Z,102346.66
2023-04-02T10:54:28.235Z,102353.47
2023-04-02T10:57:00.693Z,102352.34
2023-04-02T10:59:32.921Z,102356.50
2023-04-02T11:02:03.727Z,102349.72
2023-04-02T11:04:42.308Z,102352.34
2023-04-02T11:07:18.095Z,102353.22
2023-04-02T11:09:49.151Z,102358.47
2023-04-02T11:12:35.433Z,102363.03
2023-04-02T11:15:14.648Z,102380.69
2023-04-02T11:17:42.297Z,102380.28
2023-04-02T11:20:46.262Z,102375.69
2023-04-02T11:23:17.010Z,102380.19
2023-04-02T11:25:44.100Z,102381.31
2023-04-02T11:28:28.023Z,102389.88
2023-04-02T11:30:56.002Z,102380.09
2023-04-02T11:33:34.010Z,102383.25
2023-04-02T11:36:02.919Z,102384.78
2023-04-02T11:38:50.122Z,102396.84
2023-04-02T11:42:02.770Z,102402.09
2023-04-02T11:44:29.294Z,102402.09
2023-04-02T11:47:14.828Z,102413.44
2023-04-02T11:50:01.577Z,102407.44
2023-04-02T11:52:33.154Z,102414.66
2023-04-02T11:55:01.246Z,102407.53
2023-04-02T11:57:43.740Z,102409.38
2023-04-02T12:00:24.619Z,102412.09
2023-04-02T12:03:13.783Z,102411.75
2023-04-02T12:05:48.632Z,102409.47
2023-04-02T12:08:24.184Z,102410.63
2023-04-02T12:10:53.783Z,102413.69
2023-04-02T12:13:40.518Z,102421.69
2023-04-02T12:16:12.219Z,102432.22
2023-04-02T12:18:54.453Z,102439.66
2023-04-02T12:21:24.881Z,102440.09
2023-04-02T12:23:54.519Z,102436.44
2023-04-02T12:26:42.309Z,102433.81
2023-04-02T12:29:24.547Z,102435.38
2023-04-02T12:31:51.416Z,102441.88
2023-04-02T12:34:23.905Z,102444.13
2023-04-02T12:36:56.592Z,102444.22
2023-04-02T12:39:25.126Z,102444.91
2023-04-02T12:41:53.224Z,102439.69
2023-04-02T12:44:21.944Z,102455.16
2023-04-02T12:46:50.022Z,102442.75
2023-04-02T12:49:22.558Z,102454.06
2023-04-02T12:51:49.822Z,102444.28
2023-04-02T12:54:18.042Z,102460.84
2023-04-02T12:56:44.617Z,102464.69
2023-04-02T12:59:29.242Z,102456.88
2023-04-02T13:02:00.862Z,102463.28
2023-04-02T13:04:28.109Z,102457.19
2023-04-02T13:06:55.864Z,102463.28
2023-04-02T13:09:46.613Z,102472.72
2023-04-02T13:12:28.252Z,102469.41
2023-04-02T13:14:58.951Z,102470.16
2023-04-02T13:17:46.818Z,102471.34
2023-04-02T13:20:32.067Z,102464.91
2023-04-02T13:23:22.444Z,102470.16
2023-04-02T13:25:49.160Z,102467.19
2023-04-02T13:28:15.843Z,102468.31
2023-04-02T13:30:42.490Z,102475.09
2023-04-02T13:33:09.022Z,102468.69
2023-04-02T13:35:35.565Z,102477.72
2023-04-02T13:38:03.120Z,102473.63
2023-04-02T13:40:29.666Z,102474.06
2023-04-02T13:42:56.152Z,102469.19
2023-04-02T13:45:29.851Z,102476.69
2023-04-02T13:48:01.238Z,102473.38
2023-04-02T13:50:30.265Z,102477.84
2023-04-02T13:53:10.573Z,102482.03
2023-04-02T13:55:40.657Z,102481.34
2023-04-02T13:58:07.275Z,102480.22
2023-04-02T14:00:37.508Z,102488.13
2023-04-02T14:03:11.958Z,102493.47
2023-04-02T14:05:57.224Z,102505.91
2023-04-02T14:08:42.051Z,102500.19
2023-04-02T14:11:32.954Z,102501.03
2023-04-02T14:14:10.591Z,102507.41
2023-04-02T14:16:56.276Z,102498.75
2023-04-02T14:19:51.135Z,102497.75
2023-04-02T14:23:19.251Z,102504.13
2023-04-02T14:26:03.747Z,102492.88
2023-04-02T14:29:03.008Z,102506.47
2023-04-02T14:31:42.747Z,102518.88
2023-04-02T14:34:29.207Z,102513.22
2023-04-02T14:37:13.977Z,102514.72
2023-04-02T14:39:49.686Z,102520.78
2023-04-02T14:42:20.985Z,102514.44
2023-04-02T14:45:16.761Z,102530.56
2023-04-02T14:47:48.005Z,102526.41
2023-04-02T14:50:23.610Z,102533.97
2023-04-02T14:52:54.256Z,102530.22
2023-04-02T14:55:31.178Z,102533.63
2023-04-02T14:58:02.505Z,102540.44
2023-04-02T15:00:37.843Z,102538.91
2023-04-02T15:03:27.768Z,102537.47
2023-04-02T15:06:00.740Z,102544.59
2023-04-02T15:08:36.867Z,102537.03
2023-04-02T15:11:19.145Z,102543.41
2023-04-02T15:13:52.370Z,102555.38
2023-04-02T15:16:23.512Z,102553.13
2023-04-02T15:18:51.987Z,102539.53
2023-04-02T15:21:29.624Z,102549.66
2023-04-02T15:24:01.619Z,102552.59
2023-04-02T15:26:46.892Z,102549.28
2023-04-02T15:29:29.680Z,102551.59
2023-04-02T15:32:24.725Z,102555.75
2023-04-02T15:35:17.625Z,102561.03
2023-04-02T15:37:53.125Z,102560.25
2023-04-02T15:40:53.544Z,102556.84
2023-04-02T15:43:41.137Z,102559.06
2023-04-02T15:46:36.445Z,102557.63
2023-04-02T15:49:34.128Z,102558.78
2023-04-02T15:52:43.566Z,102558.03
2023-04-02T15:55:14.367Z,102559.97
2023-04-02T15:58:05.119Z,102558.78
2023-04-02T16:00:46.470Z,102570.53
2023-04-02T16:03:18.951Z,102550.13
2023-04-02T16:06:00.544Z,102558.78
2023-04-02T16:08:43.055Z,102569.00
2023-04-02T16:11:14.695Z,102573.16
2023-04-02T16:13:42.990Z,102579.19
2023-04-02T16:16:25.175Z,102585.91
2023-04-02T16:19:16.172Z,102592.69
2023-04-02T16:21:50.047Z,102586.03
2023-04-02T16:24:16.540Z,102594.66
2023-04-02T16:26:56.926Z,102586.75
2023-04-02T16:29:26.228Z,102591.69
2023-04-02T16:32:24.777Z,102597.38
2023-04-02T16:35:24.869Z,102595.16
2023-04-02T16:37:54.187Z,102608.69
2023-04-02T16:40:40.684Z,102608.31
2023-04-02T16:43:20.584Z,102616.66
2023-04-02T16:46:41.015Z,102623.81
2023-04-02T16:49:13.433Z,102624.91
2023-04-02T16:52:01.130Z,102617.00
2023-04-02T16:54:36.292Z,102623.38
2023-04-02T16:57:11.614Z,102638.50
2023-04-02T16:59:53.419Z,102638.84
2023-04-02T17:02:44.852Z,102639.59
2023-04-02T17:05:26.320Z,102644.88
2023-04-02T17:08:17.800Z,102649.06
2023-04-02T17:10:47.107Z,102656.28
2023-04-02T17:13:19.743Z,102660.00
2023-04-02T17:15:53.827Z,102660.00
2023-04-02T17:18:24.736Z,102659.59
2023-04-02T17:20:51.589Z,102670.91
2023-04-02T17:23:19.512Z,102670.13
2023-04-02T17:26:13.711Z,102673.53
2023-04-02T17:28:40.824Z,102680.25
2023-04-02T17:31:15.836Z,102682.13
2023-04-02T17:33:42.573Z,102679.16
2023-04-02T17:36:22.284Z,102689.25
2023-04-02T17:38:51.654Z,102681.72
2023-04-02T17:41:18.274Z,102686.97
2023-04-02T17:44:15.484Z,102693.03
2023-04-02T17:47:14.130Z,102705.44
2023-04-02T17:49:51.361Z,102708.41
2023-04-02T17:52:32.121Z,102706.44
2023-04-02T17:55:07.263Z,102715.13
2023-04-02T17:57:48.847Z,102718.84
2023-04-02T18:00:15.559Z,102729.72
2023-04-02T18:03:11.300Z,102726.66
2023-04-02T18:05:52.949Z,102737.19
2023-04-02T18:08:43.109Z,102741.72
2023-04-02T18:11:14.618Z,102743.16
2023-04-02T18:13:47.340Z,102740.53
2023-04-02T18:16:41.220Z,102741.53
2023-04-02T18:19:31.679Z,102758.44
2023-04-02T18:22:17.322Z,102755.03
2023-04-02T18:25:15.463Z,102760.44
2023-04-02T18:28:21.003Z,102768.34
2023-04-02T18:30:57.879Z,102771.22
2023-04-02T18:33:40.288Z,102776.13
2023-04-02T18:36:22.523Z,102781.38
2023-04-02T18:39:00.001Z,102776.88
2023-04-02T18:41:45.881Z,102779.88
2023-04-02T18:44:18.216Z,102785.47
2023-04-02T18:47:01.036Z,102791.84
2023-04-02T18:49:41.699Z,102798.22
2023-04-02T18:52:17.040Z,102803.84
2023-04-02T18:54:51.232Z,102794.41
2023-04-02T18:57:34.009Z,102805.28
2023-04-02T19:00:16.387Z,102813.47
2023-04-02T19:02:50.888Z,102823.59
2023-04-02T19:05:36.965Z,102819.44
2023-04-02T19:08:25.240Z,102828.88
2023-04-02T19:10:57.730Z,102833.72
2023-04-02T19:13:24.301Z,102838.97
2023-04-02T19:16:24.215Z,102849.50
2023-04-02T19:19:14.526Z,102847.97
2023-04-02T19:22:08.660Z,102856.25
2023-04-02T19:25:08.314Z,102853.59
2023-04-02T19:27:58.067Z,102861.50
2023-04-02T19:31:11.994Z,102865.56
2023-04-02T19:33:42.415Z,102867.44
2023-04-02T19:36:54.796Z,102862.50
2023-04-02T19:39:33.420Z,102866.22
2023-04-02T19:42:26.048Z,102865.47
2023-04-02T19:44:54.085Z,102868.09
2023-04-02T19:47:21.413Z,102872.59
2023-04-02T19:49:48.112Z,102870.31
2023-04-02T19:52:14.772Z,102874.06
2023-04-02T19:54:41.321Z,102875.91
2023-04-02T19:57:08.192Z,102878.88
2023-04-02T19:59:34.713Z,102879.31
2023-04-02T20:02:05.860Z,102892.13
2023-04-02T20:04:32.797Z,102883.38
2023-04-02T20:06:59.391Z,102885.25
2023-04-02T20:09:26.184Z,102882.59
2023-04-02T20:11:52.808Z,102883.72
2023-04-02T20:14:19.265Z,102893.91
2023-04-02T20:16:46.139Z,102887.44
2023-04-02T20:19:12.820Z,102889.00
2023-04-02T20:21:39.399Z,102891.94
2023-04-02T20:24:07.558Z,102891.94
2023-04-02T20:26:35.343Z,102902.91
2023-04-02T20:29:01.919Z,102905.53
2023-04-02T20:31:28.550Z,102905.09
2023-04-02T20:33:56.669Z,102913.31
2023-04-02T20:36:24.906Z,102911.47
2023-04-02T20:38:52.519Z,102911.94
2023-04-02T20:41:19.923Z,102916.41
2023-04-02T20:43:46.547Z,102922.00
2023-04-02T20:46:13.413Z,102922.22
2023-04-02T20:48:40.696Z,102938.47
2023-04-02T20:51:09.402Z,102937.03
2023-04-02T20:53:37.884Z,102946.16
2023-04-02T20:56:06.865Z,102946.94
2023-04-02T20:58:34.738Z,102951.06
2023-04-02T21:01:10.730Z,102952.19
2023-04-02T21:03:37.398Z,102944.59
2023-04-02T21:06:04.199Z,102948.00
2023-04-02T21:08:30.844Z,102956.34
2023-04-02T21:11:07.740Z,102967.22
2023-04-02T21:13:38.716Z,102967.66
2023-04-02T21:16:12.222Z,102976.19
2023-04-02T21:18:38.884Z,102977.78
2023-04-02T21:21:06.369Z,102975.13
2023-04-02T21:23:33.237Z,102977.78
2023-04-02T21:26:06.272Z,102981.16
2023-04-02T21:28:34.622Z,102983.03
2023-04-02T21:31:13.165Z,102991.22
2023-04-02T21:33:42.375Z,102999.59
2023-04-02T21:36:14.257Z,102996.19
2023-04-02T21:38:44.968Z,102991.22
2023-04-02T21:41:12.521Z,102997.25
2023-04-02T21:43:38.993Z,102993.88
2023-04-02T21:46:05.598Z,102996.81
2023-04-02T21:48:32.148Z,102996.81
2023-04-02T21:51:06.832Z,102992.66
2023-04-02T21:53:33.717Z,102998.69
2023-04-02T21:56:05.377Z,102994.97
2023-04-02T21:58:31.958Z,102996.41
2023-04-02T22:00:59.135Z,102996.06
2023-04-02T22:03:31.739Z,103003.19
2023-04-02T22:06:02.651Z,102996.41
2023-04-02T22:08:29.175Z,103002.78
2023-04-02T22:10:55.655Z,103006.16
2023-04-02T22:13:22.290Z,103006.81
2023-04-02T22:15:48.815Z,103003.88
2023-04-02T22:18:15.577Z,102996.28
2023-04-02T22:20:42.033Z,103002.31
2023-04-02T22:23:09.068Z,103011.31
2023-04-02T22:25:35.581Z,103011.31
2023-04-02T22:28:02.009Z,103000.38
2023-04-02T22:30:29.961Z,103010.09
2023-04-02T22:32:56.668Z,103008.28
2023-04-02T22:35:23.110Z,103008.28
2023-04-02T22:37:49.542Z,103004.41
2023-04-02T22:40:16.361Z,102999.91
2023-04-02T22:42:42.789Z,103008.56
2023-04-02T22:45:10.018Z,103006.25
2023-04-02T22:47:36.576Z,103006.25
2023-04-02T22:50:03.187Z,103009.56
2023-04-02T22:52:29.694Z,103009.56
2023-04-02T22:54:56.414Z,103013.28
2023-04-02T22:57:22.950Z,103015.94
2023-04-02T22:59:49.403Z,103013.28
2023-04-02T23:02:15.999Z,103021.97
2023-04-02T23:04:42.457Z,103023.81
2023-04-02T23:07:08.988Z,103024.94
2023-04-02T23:09:35.645Z,103022.31
2023-04-02T23:12:02.088Z,103022.97
2023-04-02T23:14:28.625Z,103022.63
2023-04-02T23:16:55.506Z,103024.94
2023-04-02T23:19:21.938Z,103027.13
2023-04-02T23:21:48.358Z,103023.72
2023-04-02T23:24:14.951Z,103033.50
2023-04-02T23:26:41.407Z,103028.69
2023-04-02T23:29:09.740Z,103028.69
2023-04-02T23:31:36.211Z,103024.50
2023-04-02T23:34:02.825Z,103021.88
2023-04-02T23:36:32.020Z,103031.16
2023-04-02T23:39:04.117Z,103031.16
2023-04-02T23:41:31.363Z,103027.78
2023-04-02T23:43:58.339Z,103038.31
2023-04-02T23:46:25.885Z,103033.03
2023-04-02T23:48:53.292Z,103028.88
2023-04-02T23:51:20.067Z,103031.50
2023-04-02T23:53:46.761Z,103039.41
2023-04-02T23:56:13.209Z,103042.34
2023-04-02T23:58:39.693Z,103036.00
